createdAt,value
2022-08-20T00:02:46.557Z,18.8
2022-08-20T00:17:46.504Z,18.6
2022-08-20T00:32:46.531Z,18.5
2022-08-20T00:47:51.584Z,18.3
2022-08-20T01:02:46.459Z,18.2
2022-08-20T01:17:46.402Z,18
2022-08-20T01:32:46.410Z,17.9
2022-08-20T01:47:46.366Z,17.8
2022-08-20T02:02:46.359Z,17.7
2022-08-20T02:17:46.349Z,17.6
2022-08-20T02:32:46.325Z,17.5
2022-08-20T02:47:46.291Z,17.4
2022-08-20T03:02:46.264Z,17.3
2022-08-20T03:17:46.260Z,17.3
2022-08-20T03:32:46.223Z,17
2022-08-20T03:47:46.187Z,16.9
2022-08-20T04:02:46.172Z,16.8
2022-08-20T04:17:46.113Z,16.6
2022-08-20T04:32:46.120Z,16.7
2022-08-20T04:47:46.066Z,16.8
2022-08-20T05:02:46.078Z,16.6
2022-08-20T05:17:46.041Z,16.6
2022-08-20T05:32:46.042Z,17.8
2022-08-20T05:47:45.975Z,19.2
2022-08-20T06:02:45.976Z,20.8
2022-08-20T06:17:45.924Z,21.8
2022-08-20T06:32:45.946Z,21.6
2022-08-20T06:47:45.868Z,20.7
2022-08-20T07:02:45.842Z,20.4
2022-08-20T07:17:45.814Z,19.9
2022-08-20T07:32:45.804Z,19.5
2022-08-20T07:47:45.795Z,19.7
2022-08-20T08:02:45.743Z,22
2022-08-20T08:17:45.720Z,26.6
2022-08-20T08:32:45.726Z,27.6
2022-08-20T08:47:45.664Z,23.6
2022-08-20T09:02:45.745Z,21.1
2022-08-20T09:17:45.611Z,20.3
2022-08-20T09:32:45.616Z,21.4
2022-08-20T09:47:56.972Z,24.9
2022-08-20T10:17:45.507Z,26.3
2022-08-20T10:32:45.511Z,25.1
2022-08-20T10:47:45.442Z,24.9
2022-08-20T11:02:45.456Z,24.9
2022-08-20T11:17:45.400Z,25.1
2022-08-20T11:32:45.392Z,25.5
2022-08-20T11:47:45.346Z,25
2022-08-20T12:02:45.416Z,25.2
2022-08-20T12:17:45.306Z,24.9
2022-08-20T12:32:45.289Z,25
2022-08-20T12:47:45.232Z,25.4
2022-08-20T13:02:45.239Z,25.3
2022-08-20T13:17:45.181Z,25.3
2022-08-20T13:32:45.184Z,25.3
2022-08-20T13:47:45.125Z,25.4
2022-08-20T14:02:45.138Z,25.3
2022-08-20T14:17:45.073Z,25.4
2022-08-20T14:47:45.016Z,25.6
2022-08-20T15:02:45.020Z,25.7
2022-08-20T15:17:44.967Z,25.7
2022-08-20T15:32:44.976Z,25.7
2022-08-20T15:47:44.915Z,25.4
2022-08-20T16:02:44.921Z,25.7
2022-08-20T16:17:44.899Z,25.6
2022-08-20T16:32:44.859Z,25.6
2022-08-20T16:47:44.854Z,25.5
2022-08-20T17:02:44.813Z,25.4
2022-08-20T17:17:44.782Z,25.4
2022-08-20T17:32:44.755Z,25.3
2022-08-20T17:47:44.696Z,25.1
2022-08-20T18:02:44.705Z,24.9
2022-08-20T18:17:44.667Z,24.7
2022-08-20T18:32:44.664Z,24.6
2022-08-20T18:47:45.202Z,24.5
2022-08-20T19:02:44.617Z,24.4
2022-08-20T19:17:44.557Z,24.4
2022-08-20T19:32:48.339Z,24.2
2022-08-20T19:47:44.476Z,23.9
2022-08-20T20:02:44.499Z,23.9
2022-08-20T20:17:44.462Z,23.8
2022-08-20T20:32:44.404Z,23.5
2022-08-20T20:47:44.377Z,23.5
2022-08-20T21:02:44.344Z,23.5
2022-08-20T21:17:44.314Z,23.4
2022-08-20T21:32:44.292Z,23.1
2022-08-20T21:47:44.261Z,22.9
2022-08-20T22:02:44.260Z,22.8
2022-08-20T22:17:44.212Z,22.8
2022-08-20T22:32:52.338Z,22.5
2022-08-20T22:47:44.161Z,22.3
2022-08-20T23:02:44.154Z,22.2
2022-08-20T23:17:44.111Z,22.1
2022-08-20T23:32:44.115Z,22.1
2022-08-20T23:47:44.050Z,21.3
